Time;durP1;ratioP1;P1;durP2;ratioP2;P2;SDS_P1;SDS_P2;PMS_P1;PMS_P2;Temp;Humidity;BMP_temperature;BMP_pressure;BME280_temperature;BME280_humidity;BME280_pressure;Samples;Min_cycle;Max_cycle;Signal;HPM_P1;HPM_P2
2023/03/14 00:00:52;;;;;;;2.30;1.10;;;11.60;99.90;;;;;;5008198;28;20288;-73
2023/03/14 00:03:19;;;;;;;0.80;0.80;;;11.70;99.90;;;;;;5007932;28;20313;-73
2023/03/14 00:05:45;;;;;;;3.67;0.80;;;11.70;99.90;;;;;;5007680;28;20316;-73
2023/03/14 00:08:12;;;;;;;0.93;0.83;;;11.70;99.90;;;;;;5007939;28;20263;-74
2023/03/14 00:10:40;;;;;;;0.80;0.80;;;11.70;99.90;;;;;;5007432;28;20339;-73
2023/03/14 00:13:07;;;;;;;0.97;0.90;;;11.60;99.90;;;;;;5007356;28;20237;-73
2023/03/14 00:15:36;;;;;;;2.50;0.97;;;11.60;99.90;;;;;;5007000;28;20205;-73
2023/03/14 00:18:03;;;;;;;0.60;0.60;;;11.60;99.90;;;;;;5007651;28;20219;-73
2023/03/14 00:20:29;;;;;;;0.90;0.80;;;11.60;99.90;;;;;;5007605;28;20798;-73
2023/03/14 00:22:56;;;;;;;1.00;1.00;;;11.60;99.90;;;;;;5007265;28;20664;-73
2023/03/14 00:25:23;;;;;;;1.30;0.97;;;11.60;99.90;;;;;;5007719;28;21128;-73
2023/03/14 00:27:51;;;;;;;0.77;0.77;;;11.60;99.90;;;;;;5007007;28;20981;-73
2023/03/14 00:30:19;;;;;;;1.00;0.90;;;11.60;99.90;;;;;;5007112;28;20253;-73
2023/03/14 00:32:47;;;;;;;1.13;0.73;;;11.60;99.90;;;;;;5006863;28;20367;-73
2023/03/14 00:35:14;;;;;;;0.57;0.53;;;11.60;99.90;;;;;;5006405;28;20237;-73
2023/03/14 00:37:41;;;;;;;0.70;0.70;;;11.50;99.90;;;;;;5023013;28;20240;-73
2023/03/14 00:40:09;;;;;;;0.67;0.67;;;11.50;99.90;;;;;;5027312;28;20291;-73
2023/03/14 00:42:36;;;;;;;1.00;0.77;;;11.50;99.90;;;;;;5010412;28;20296;-73
2023/03/14 00:45:04;;;;;;;1.20;0.80;;;11.40;99.90;;;;;;5006757;28;20300;-73
2023/03/14 00:47:31;;;;;;;0.87;0.87;;;11.40;99.90;;;;;;5007544;28;20216;-73
2023/03/14 00:49:59;;;;;;;1.77;1.00;;;11.40;99.90;;;;;;5007358;28;20304;-73
2023/03/14 00:52:26;;;;;;;0.73;0.73;;;11.40;99.90;;;;;;5006953;28;20591;-73
2023/03/14 00:54:53;;;;;;;0.57;0.57;;;11.40;99.90;;;;;;5007117;28;20205;-73
2023/03/14 00:57:20;;;;;;;0.97;0.80;;;11.40;99.90;;;;;;5004024;28;20300;-73
2023/03/14 00:59:47;;;;;;;0.87;0.87;;;11.30;99.90;;;;;;5007120;28;20300;-73
2023/03/14 01:02:14;;;;;;;0.60;0.57;;;11.30;99.90;;;;;;5007098;28;20220;-73
2023/03/14 01:04:43;;;;;;;1.43;1.20;;;11.30;99.90;;;;;;5006931;28;20267;-73
2023/03/14 01:07:11;;;;;;;0.87;0.87;;;11.30;99.90;;;;;;5006707;28;20213;-73
2023/03/14 01:09:38;;;;;;;0.93;0.87;;;11.30;99.90;;;;;;5006764;28;20245;-73
2023/03/14 01:12:05;;;;;;;1.90;0.97;;;11.30;99.90;;;;;;5001071;28;20324;-73
2023/03/14 01:14:32;;;;;;;1.07;0.97;;;11.30;99.90;;;;;;5006936;28;20284;-73
2023/03/14 01:17:00;;;;;;;0.83;0.83;;;11.30;99.90;;;;;;5007259;28;20555;-73
2023/03/14 01:19:28;;;;;;;0.80;0.80;;;11.20;99.90;;;;;;5007243;28;20210;-73
2023/03/14 01:21:55;;;;;;;0.97;0.90;;;11.20;99.90;;;;;;5006790;28;20539;-73
2023/03/14 01:24:23;;;;;;;1.10;1.10;;;11.20;99.90;;;;;;5007151;28;20255;-73
2023/03/14 01:26:50;;;;;;;1.03;0.67;;;11.20;99.90;;;;;;5006745;28;20280;-72
2023/03/14 01:29:17;;;;;;;1.70;1.00;;;11.30;99.90;;;;;;5010712;28;20296;-72
2023/03/14 01:31:44;;;;;;;0.80;0.80;;;11.30;99.90;;;;;;5010564;28;20316;-72
2023/03/14 01:34:11;;;;;;;0.93;0.87;;;11.30;99.90;;;;;;5010873;28;20296;-72
2023/03/14 01:36:38;;;;;;;1.00;1.00;;;11.40;99.90;;;;;;5017702;28;20205;-72
2023/03/14 01:39:06;;;;;;;1.57;0.73;;;11.40;99.90;;;;;;5030781;28;20582;-72
2023/03/14 01:41:34;;;;;;;0.90;0.90;;;11.40;99.90;;;;;;5022776;28;20217;-72
2023/03/14 01:44:01;;;;;;;0.67;0.67;;;11.40;99.90;;;;;;5010306;28;20304;-73
2023/03/14 01:46:48;;;;;;;0.93;0.80;;;11.40;99.90;;;;;;5010338;28;20312;-72
2023/03/14 01:49:23;;;;;;;1.10;1.10;;;11.40;99.90;;;;;;5010861;28;20197;-72
2023/03/14 01:51:54;;;;;;;0.80;0.80;;;11.40;99.90;;;;;;5010366;28;20325;-72
2023/03/14 01:54:25;;;;;;;0.80;0.70;;;11.40;99.90;;;;;;5010742;28;20278;-72
2023/03/14 01:56:56;;;;;;;1.50;0.73;;;11.50;99.90;;;;;;5010607;28;20702;-72
2023/03/14 01:59:25;;;;;;;0.87;0.80;;;11.40;99.90;;;;;;5010709;28;20229;-72
2023/03/14 02:01:52;;;;;;;0.87;0.83;;;11.40;99.90;;;;;;5010327;28;20214;-72
2023/03/14 02:04:20;;;;;;;0.73;0.73;;;11.40;99.90;;;;;;5010259;28;20209;-72
2023/03/14 02:06:52;;;;;;;0.80;0.80;;;11.40;99.90;;;;;;5009914;28;20680;-72
2023/03/14 02:09:20;;;;;;;1.90;0.87;;;11.40;99.90;;;;;;5010217;28;20758;-72
2023/03/14 02:11:48;;;;;;;0.73;0.73;;;11.40;99.90;;;;;;5000460;28;20241;-72
2023/03/14 02:14:26;;;;;;;0.77;0.77;;;11.40;99.90;;;;;;5003313;28;20240;-72
2023/03/14 02:16:53;;;;;;;1.50;1.20;;;11.40;99.90;;;;;;5030047;28;20276;-73
2023/03/14 02:19:27;;;;;;;2.60;1.00;;;11.40;99.90;;;;;;5029827;28;20219;-72
2023/03/14 02:22:02;;;;;;;1.03;0.77;;;11.40;99.90;;;;;;5026640;28;20288;-72
2023/03/14 02:24:36;;;;;;;1.47;0.57;;;11.40;99.90;;;;;;5009976;28;20285;-72
2023/03/14 02:27:11;;;;;;;1.13;0.93;;;11.40;99.90;;;;;;5009764;28;20741;-72
2023/03/14 02:29:46;;;;;;;1.17;0.80;;;11.30;99.90;;;;;;5009677;28;20322;-74
2023/03/14 02:32:14;;;;;;;0.80;0.80;;;11.30;99.90;;;;;;5009512;28;20217;-75
2023/03/14 02:34:43;;;;;;;1.40;0.67;;;11.30;99.90;;;;;;5009528;28;20249;-75
2023/03/14 02:37:11;;;;;;;2.20;0.80;;;11.30;99.90;;;;;;5009356;28;20297;-72
2023/03/14 02:39:42;;;;;;;1.27;0.90;;;11.30;99.90;;;;;;5008914;28;20233;-72
2023/03/14 02:42:10;;;;;;;0.80;0.80;;;11.30;99.90;;;;;;5009373;28;20217;-73
2023/03/14 02:44:48;;;;;;;3.00;0.70;;;11.30;99.90;;;;;;5009399;28;20313;-74
2023/03/14 02:47:14;;;;;;;0.80;0.80;;;11.30;99.90;;;;;;5009634;28;20276;-74
2023/03/14 02:49:41;;;;;;;0.73;0.70;;;11.30;99.90;;;;;;5009554;28;20201;-74
2023/03/14 02:52:08;;;;;;;0.70;0.60;;;11.20;99.90;;;;;;5009089;28;20313;-74
2023/03/14 02:54:35;;;;;;;1.17;1.00;;;11.20;99.90;;;;;;5009069;28;20659;-75
2023/03/14 02:57:04;;;;;;;0.60;0.60;;;11.20;99.90;;;;;;5009353;28;20321;-74
2023/03/14 02:59:32;;;;;;;1.07;0.73;;;11.20;99.90;;;;;;5008915;28;20292;-75
2023/03/14 03:02:00;;;;;;;4.13;1.10;;;11.10;99.90;;;;;;5009116;28;20216;-74
2023/03/14 03:04:27;;;;;;;1.13;0.70;;;11.10;99.90;;;;;;5009019;28;20328;-74
2023/03/14 03:06:54;;;;;;;0.83;0.83;;;11.10;99.90;;;;;;5008718;28;20244;-74
2023/03/14 03:09:21;;;;;;;0.50;0.50;;;11.10;99.90;;;;;;5008850;28;20233;-74
2023/03/14 03:11:48;;;;;;;0.80;0.80;;;11.10;99.90;;;;;;4999465;28;20793;-74
2023/03/14 03:14:14;;;;;;;0.57;0.57;;;11.00;99.90;;;;;;5008670;28;20312;-72
2023/03/14 03:16:43;;;;;;;0.80;0.80;;;11.10;99.90;;;;;;5008628;28;20748;-73
2023/03/14 03:19:10;;;;;;;1.50;0.73;;;11.10;99.90;;;;;;5008436;28;20248;-73
2023/03/14 03:21:36;;;;;;;0.60;0.60;;;11.10;99.90;;;;;;5008753;28;20295;-72
2023/03/14 03:24:04;;;;;;;0.70;0.70;;;11.10;99.90;;;;;;5008908;28;20352;-72
2023/03/14 03:26:30;;;;;;;1.57;0.70;;;11.10;99.90;;;;;;5008827;28;20241;-73
2023/03/14 03:28:57;;;;;;;1.07;0.53;;;11.10;99.90;;;;;;5008660;28;20206;-73
2023/03/14 03:31:24;;;;;;;0.70;0.70;;;11.10;99.90;;;;;;5006769;28;20216;-74
2023/03/14 03:33:52;;;;;;;0.70;0.70;;;11.10;99.90;;;;;;5006458;28;20333;-73
2023/03/14 03:36:22;;;;;;;0.70;0.70;;;11.10;99.90;;;;;;5011226;28;20201;-73
2023/03/14 03:38:49;;;;;;;1.03;0.80;;;11.20;99.90;;;;;;5026523;28;20211;-73
2023/03/14 03:41:16;;;;;;;0.83;0.70;;;11.20;99.90;;;;;;5011976;28;20301;-73
2023/03/14 03:43:43;;;;;;;0.60;0.60;;;11.10;99.90;;;;;;5005962;28;20881;-73
2023/03/14 03:46:10;;;;;;;0.63;0.63;;;11.10;99.90;;;;;;5006707;28;20680;-73
2023/03/14 03:48:37;;;;;;;0.50;0.50;;;11.10;99.90;;;;;;5006476;28;20312;-73
2023/03/14 03:51:06;;;;;;;0.53;0.53;;;11.10;99.90;;;;;;5005599;28;20296;-73
2023/03/14 03:53:33;;;;;;;0.60;0.60;;;11.10;99.90;;;;;;5005969;28;20322;-73
2023/03/14 03:56:01;;;;;;;0.30;0.30;;;11.10;99.90;;;;;;5006327;28;20219;-73
2023/03/14 03:58:28;;;;;;;0.93;0.57;;;11.10;99.90;;;;;;5006025;28;20217;-73
2023/03/14 04:00:55;;;;;;;0.50;0.50;;;11.10;99.90;;;;;;5006282;28;20205;-73
2023/03/14 04:03:22;;;;;;;1.43;0.60;;;11.20;99.90;;;;;;5006007;28;20233;-73
2023/03/14 04:05:59;;;;;;;1.00;0.57;;;11.20;99.90;;;;;;5005620;28;20289;-73
2023/03/14 04:08:28;;;;;;;0.70;0.70;;;11.20;99.90;;;;;;5004579;28;20233;-73
2023/03/14 04:10:57;;;;;;;0.50;0.50;;;11.20;99.90;;;;;;5005604;28;20208;-73
2023/03/14 04:13:24;;;;;;;0.50;0.50;;;11.20;99.90;;;;;;5006454;28;20283;-72
2023/03/14 04:15:51;;;;;;;1.53;0.60;;;11.20;99.90;;;;;;5006764;28;20572;-72
2023/03/14 04:18:18;;;;;;;0.63;0.63;;;11.20;99.90;;;;;;5006708;28;20216;-72
2023/03/14 04:20:45;;;;;;;0.40;0.40;;;11.20;99.90;;;;;;5007194;28;20305;-72
2023/03/14 04:23:12;;;;;;;0.50;0.50;;;11.20;99.90;;;;;;5007220;28;20327;-72
2023/03/14 04:25:41;;;;;;;0.40;0.40;;;11.20;99.90;;;;;;5007207;28;20263;-72
2023/03/14 04:28:07;;;;;;;1.17;0.53;;;11.20;99.90;;;;;;5007476;28;20735;-72
2023/03/14 04:30:34;;;;;;;0.67;0.67;;;11.20;99.90;;;;;;5007358;28;20272;-72
2023/03/14 04:33:01;;;;;;;1.10;0.50;;;11.20;99.90;;;;;;5007611;28;20241;-72
2023/03/14 04:35:31;;;;;;;0.90;0.80;;;11.20;99.90;;;;;;5007246;28;20308;-72
2023/03/14 04:37:57;;;;;;;0.60;0.60;;;11.20;99.90;;;;;;5014943;28;20221;-72
2023/03/14 04:40:24;;;;;;;0.53;0.50;;;11.20;99.90;;;;;;5007421;28;20226;-72
2023/03/14 04:42:53;;;;;;;0.70;0.60;;;11.20;99.90;;;;;;5007260;28;20249;-72
2023/03/14 04:45:20;;;;;;;1.43;0.57;;;11.20;99.90;;;;;;5007219;28;20220;-72
2023/03/14 04:47:47;;;;;;;0.80;0.80;;;11.20;99.90;;;;;;5007247;28;20297;-72
2023/03/14 04:50:13;;;;;;;0.70;0.70;;;11.20;99.90;;;;;;5007477;28;20233;-73
2023/03/14 04:52:40;;;;;;;0.60;0.60;;;11.20;99.90;;;;;;5007022;28;20256;-72
2023/03/14 04:55:08;;;;;;;0.60;0.60;;;11.20;99.90;;;;;;5007174;28;20299;-72
2023/03/14 04:57:34;;;;;;;0.50;0.50;;;11.20;99.90;;;;;;5007085;28;20301;-72
2023/03/14 05:00:06;;;;;;;0.60;0.47;;;11.20;99.90;;;;;;5006773;28;20213;-72
2023/03/14 05:02:32;;;;;;;2.03;0.60;;;11.20;99.90;;;;;;5006797;28;20691;-72
2023/03/14 05:04:59;;;;;;;0.57;0.57;;;11.20;99.90;;;;;;5007260;28;20268;-72
2023/03/14 05:07:27;;;;;;;0.43;0.43;;;11.20;99.90;;;;;;5006879;28;20292;-72
2023/03/14 05:09:54;;;;;;;5.87;0.77;;;11.20;99.90;;;;;;5005657;28;20320;-72
2023/03/14 05:12:21;;;;;;;0.60;0.60;;;11.20;99.90;;;;;;4989288;28;20210;-72
2023/03/14 05:14:48;;;;;;;1.83;0.60;;;11.20;99.90;;;;;;4987066;28;20730;-72
2023/03/14 05:17:16;;;;;;;1.17;0.67;;;11.20;99.90;;;;;;4987477;28;20758;-72
2023/03/14 05:19:43;;;;;;;0.63;0.63;;;11.20;99.90;;;;;;4987467;28;20210;-72
2023/03/14 05:22:10;;;;;;;0.97;0.60;;;11.20;99.90;;;;;;4987701;28;20637;-72
2023/03/14 05:24:37;;;;;;;3.70;1.23;;;11.20;99.90;;;;;;4987339;28;21089;-72
2023/03/14 05:27:05;;;;;;;2.27;0.50;;;11.20;99.90;;;;;;4987662;28;20305;-72
2023/03/14 05:29:32;;;;;;;1.80;0.57;;;11.20;99.90;;;;;;4987069;28;20564;-72
2023/03/14 05:31:59;;;;;;;0.60;0.60;;;11.20;99.90;;;;;;4987575;28;20301;-72
2023/03/14 05:34:27;;;;;;;0.87;0.80;;;11.20;99.90;;;;;;4987352;28;20232;-72
2023/03/14 05:36:55;;;;;;;0.73;0.73;;;11.20;99.90;;;;;;4996599;28;20292;-72
2023/03/14 05:39:23;;;;;;;1.03;0.50;;;11.20;99.90;;;;;;5007296;28;20201;-72
2023/03/14 05:41:50;;;;;;;0.60;0.60;;;11.20;99.90;;;;;;5006607;28;20213;-72
2023/03/14 05:44:17;;;;;;;1.33;0.57;;;11.20;99.90;;;;;;5006732;28;20209;-72
2023/03/14 05:46:44;;;;;;;0.60;0.50;;;11.20;99.90;;;;;;5007091;28;20212;-72
2023/03/14 05:49:11;;;;;;;0.77;0.70;;;11.20;99.90;;;;;;5007235;28;20218;-72
2023/03/14 05:51:39;;;;;;;1.30;0.80;;;11.20;99.90;;;;;;5006928;28;20318;-72
2023/03/14 05:54:06;;;;;;;0.60;0.40;;;11.20;99.90;;;;;;5006513;28;20234;-72
2023/03/14 05:56:33;;;;;;;1.43;0.80;;;11.20;99.90;;;;;;5006862;28;20431;-72
2023/03/14 05:59:02;;;;;;;0.80;0.70;;;11.20;99.90;;;;;;5006154;28;20257;-72
2023/03/14 06:01:29;;;;;;;0.53;0.50;;;11.20;99.90;;;;;;5006356;28;20213;-72
2023/03/14 06:03:56;;;;;;;1.40;0.53;;;11.20;99.90;;;;;;5006794;28;20616;-72
2023/03/14 06:06:22;;;;;;;0.93;0.80;;;11.20;99.90;;;;;;5006590;28;20209;-72
2023/03/14 06:08:51;;;;;;;0.77;0.60;;;11.20;99.90;;;;;;5005931;28;20248;-72
2023/03/14 06:11:18;;;;;;;1.47;0.80;;;11.30;99.90;;;;;;5005182;28;20627;-72
2023/03/14 06:13:46;;;;;;;1.33;1.00;;;11.30;99.90;;;;;;5006689;28;20320;-72
2023/03/14 06:16:14;;;;;;;0.70;0.70;;;11.30;99.90;;;;;;5010103;28;20201;-72
2023/03/14 06:18:41;;;;;;;1.10;0.70;;;11.30;99.90;;;;;;5009843;28;20240;-72
2023/03/14 06:21:08;;;;;;;1.50;0.90;;;11.30;99.90;;;;;;5009748;28;20251;-72
2023/03/14 06:23:35;;;;;;;0.93;0.70;;;11.30;99.90;;;;;;5009480;28;20292;-72
2023/03/14 06:26:04;;;;;;;0.60;0.57;;;11.30;99.90;;;;;;5009592;28;20771;-72
2023/03/14 06:28:30;;;;;;;0.80;0.80;;;11.40;99.90;;;;;;5009283;28;20225;-72
2023/03/14 06:30:59;;;;;;;2.37;1.00;;;11.40;99.90;;;;;;5009460;28;20292;-72
2023/03/14 06:33:25;;;;;;;0.60;0.60;;;11.40;99.90;;;;;;5009486;28;20235;-72
2023/03/14 06:35:52;;;;;;;1.73;0.70;;;11.40;99.90;;;;;;5009465;28;20237;-72
2023/03/14 06:38:19;;;;;;;0.90;0.80;;;11.50;99.90;;;;;;5009101;28;20747;-72
2023/03/14 06:40:46;;;;;;;1.90;1.07;;;11.50;99.90;;;;;;5009292;28;20216;-72
2023/03/14 06:43:14;;;;;;;2.43;1.00;;;11.50;99.90;;;;;;5009241;28;20303;-72
2023/03/14 06:45:41;;;;;;;1.17;1.07;;;11.50;99.90;;;;;;5009310;28;20271;-72
2023/03/14 06:48:08;;;;;;;2.70;0.90;;;11.60;99.90;;;;;;5009274;28;20212;-72
2023/03/14 06:50:35;;;;;;;1.40;0.80;;;11.60;99.90;;;;;;5009228;28;20237;-72
2023/03/14 06:53:02;;;;;;;1.10;0.67;;;11.60;99.90;;;;;;5008824;28;20666;-72
2023/03/14 06:55:29;;;;;;;2.37;1.00;;;11.60;99.90;;;;;;5009224;28;20218;-72
2023/03/14 06:57:56;;;;;;;0.83;0.63;;;11.60;99.90;;;;;;5008957;28;20233;-72
2023/03/14 07:00:24;;;;;;;0.93;0.70;;;11.70;99.90;;;;;;5008823;28;20295;-72
2023/03/14 07:02:51;;;;;;;1.97;0.83;;;11.70;99.90;;;;;;5009007;28;20275;-72
2023/03/14 07:05:18;;;;;;;2.20;0.87;;;11.80;99.90;;;;;;4989408;28;20300;-72
2023/03/14 07:07:45;;;;;;;4.07;0.90;;;11.80;99.90;;;;;;4989105;28;20309;-71
2023/03/14 07:10:12;;;;;;;1.43;0.70;;;11.80;99.90;;;;;;4989048;28;20246;-72
2023/03/14 07:12:39;;;;;;;1.63;1.00;;;11.80;99.90;;;;;;5005505;28;20216;-72
2023/03/14 07:15:07;;;;;;;2.80;1.07;;;11.70;99.90;;;;;;5008195;28;20320;-72
2023/03/14 07:17:35;;;;;;;1.80;0.80;;;11.70;99.90;;;;;;5008706;28;20348;-72
2023/03/14 07:20:04;;;;;;;2.47;1.23;;;11.70;99.90;;;;;;5008817;28;20267;-72
2023/03/14 07:22:30;;;;;;;1.40;0.90;;;11.70;99.90;;;;;;5008624;28;20210;-72
2023/03/14 07:24:57;;;;;;;3.23;1.00;;;11.70;99.90;;;;;;5007732;28;20292;-72
2023/03/14 07:27:24;;;;;;;1.30;0.90;;;11.70;99.90;;;;;;5008644;28;20297;-72
2023/03/14 07:29:51;;;;;;;4.60;1.10;;;11.70;99.90;;;;;;5014418;28;20224;-72
2023/03/14 07:32:18;;;;;;;2.67;1.10;;;11.80;99.90;;;;;;5028542;28;20292;-72
2023/03/14 07:34:46;;;;;;;2.10;1.00;;;11.80;99.90;;;;;;5028418;28;20232;-72
2023/03/14 07:37:13;;;;;;;1.60;1.00;;;11.80;99.90;;;;;;5028164;28;20644;-72
2023/03/14 07:39:40;;;;;;;2.27;1.10;;;11.80;99.90;;;;;;5027397;28;20302;-72
2023/03/14 07:42:07;;;;;;;2.23;0.80;;;11.80;99.90;;;;;;5008767;28;20245;-72
2023/03/14 07:44:34;;;;;;;1.73;1.00;;;11.90;99.90;;;;;;5007985;28;20300;-72
2023/03/14 07:47:01;;;;;;;1.43;1.20;;;11.90;99.90;;;;;;5008639;28;20308;-72
2023/03/14 07:49:27;;;;;;;2.20;1.00;;;12.00;99.90;;;;;;5008140;28;20212;-72
2023/03/14 07:51:56;;;;;;;2.50;0.90;;;12.10;99.90;;;;;;5007893;28;20205;-72
2023/03/14 07:54:23;;;;;;;1.37;0.80;;;12.10;99.90;;;;;;5008163;28;20239;-72
2023/03/14 07:56:50;;;;;;;1.50;1.17;;;12.10;99.90;;;;;;5007884;28;20729;-72
2023/03/14 07:59:17;;;;;;;2.40;0.90;;;12.10;99.90;;;;;;5007852;28;20260;-72
2023/03/14 08:01:44;;;;;;;1.53;1.20;;;12.20;99.90;;;;;;5007903;28;20292;-72
2023/03/14 08:04:10;;;;;;;2.53;1.23;;;12.20;99.90;;;;;;5008147;28;20312;-72
2023/03/14 08:06:38;;;;;;;2.03;1.20;;;12.20;99.90;;;;;;5007653;28;20304;-72
2023/03/14 08:09:06;;;;;;;2.17;1.00;;;12.20;99.90;;;;;;5007709;28;20324;-72
2023/03/14 08:11:33;;;;;;;2.37;0.97;;;12.20;99.90;;;;;;5000326;28;20242;-72
2023/03/14 08:14:00;;;;;;;2.93;0.93;;;12.20;99.90;;;;;;4987947;28;20236;-72
2023/03/14 08:16:27;;;;;;;2.57;0.83;;;12.20;99.90;;;;;;4988472;28;20238;-72
2023/03/14 08:18:54;;;;;;;1.37;0.97;;;12.20;99.90;;;;;;4987837;28;20209;-72
2023/03/14 08:21:20;;;;;;;3.17;1.07;;;12.30;99.90;;;;;;4988240;28;20301;-72
2023/03/14 08:23:47;;;;;;;2.37;1.30;;;12.30;99.90;;;;;;5004770;28;20304;-72
2023/03/14 08:26:16;;;;;;;1.70;1.00;;;12.30;99.90;;;;;;5007724;28;20288;-72
2023/03/14 08:28:42;;;;;;;2.00;0.80;;;12.30;99.90;;;;;;5007223;28;20316;-72
2023/03/14 08:31:09;;;;;;;2.37;1.00;;;12.30;99.90;;;;;;5007638;28;20296;-72
2023/03/14 08:33:36;;;;;;;1.50;0.87;;;12.30;99.90;;;;;;5007351;28;20304;-72
2023/03/14 08:36:03;;;;;;;1.87;0.90;;;12.20;99.90;;;;;;5006895;28;20284;-72
2023/03/14 08:38:30;;;;;;;2.50;1.10;;;12.30;99.90;;;;;;5007307;28;20309;-72
2023/03/14 08:40:58;;;;;;;2.43;1.23;;;12.20;99.90;;;;;;5007101;28;20298;-72
2023/03/14 08:43:27;;;;;;;1.90;1.10;;;12.20;99.90;;;;;;5006962;28;20210;-71
2023/03/14 08:45:54;;;;;;;3.53;1.20;;;12.20;99.90;;;;;;5007158;28;20782;-71
2023/03/14 08:48:21;;;;;;;3.67;1.20;;;12.20;99.90;;;;;;5007304;28;20303;-72
2023/03/14 08:50:48;;;;;;;1.30;0.73;;;12.20;99.90;;;;;;5007480;28;20309;-71
2023/03/14 08:53:15;;;;;;;1.30;0.97;;;12.20;99.90;;;;;;5007264;28;20201;-71
2023/03/14 08:55:42;;;;;;;1.97;1.07;;;12.20;99.90;;;;;;5006667;28;20838;-72
2023/03/14 08:58:08;;;;;;;2.03;1.17;;;12.20;99.90;;;;;;5006633;28;20709;-72
2023/03/14 09:00:37;;;;;;;2.47;0.77;;;12.30;99.90;;;;;;5007059;28;20307;-72
2023/03/14 09:03:04;;;;;;;2.20;1.03;;;12.30;99.90;;;;;;5007321;28;20297;-72
2023/03/14 09:05:34;;;;;;;2.80;1.10;;;12.40;99.90;;;;;;5007663;28;20301;-72
2023/03/14 09:08:01;;;;;;;3.17;1.30;;;12.40;99.90;;;;;;5007072;28;20201;-72
2023/03/14 09:10:28;;;;;;;2.57;1.30;;;12.50;99.90;;;;;;5006864;28;20336;-72
2023/03/14 09:12:58;;;;;;;1.77;1.10;;;12.50;99.90;;;;;;5006821;28;20634;-72
2023/03/14 09:15:25;;;;;;;2.20;1.00;;;12.60;99.90;;;;;;5007106;28;20864;-72
2023/03/14 09:17:54;;;;;;;2.80;1.00;;;12.70;99.90;;;;;;5007269;28;20213;-72
2023/03/14 09:20:21;;;;;;;4.00;1.13;;;12.80;99.90;;;;;;5006870;28;20655;-72
2023/03/14 09:22:48;;;;;;;2.13;0.90;;;12.90;99.90;;;;;;5006497;28;20292;-72
2023/03/14 09:25:15;;;;;;;3.73;1.33;;;13.00;99.90;;;;;;5006832;28;20300;-72
2023/03/14 09:27:42;;;;;;;2.03;0.83;;;13.10;99.90;;;;;;5006668;28;20291;-74
2023/03/14 09:30:10;;;;;;;2.37;1.27;;;13.30;99.90;;;;;;5007035;28;20305;-72
2023/03/14 09:32:37;;;;;;;5.60;1.60;;;13.40;99.90;;;;;;5007015;28;20205;-72
2023/03/14 09:35:06;;;;;;;3.90;1.10;;;13.60;99.90;;;;;;5006698;28;20245;-72
2023/03/14 09:37:33;;;;;;;1.37;1.10;;;13.70;99.90;;;;;;5006886;28;20275;-73
2023/03/14 09:40:00;;;;;;;1.57;0.97;;;13.60;99.90;;;;;;5006673;28;20292;-72
2023/03/14 09:42:28;;;;;;;1.53;0.73;;;13.60;99.90;;;;;;4991714;28;20206;-74
2023/03/14 09:44:58;;;;;;;1.10;0.77;;;13.50;99.90;;;;;;4987156;28;20304;-72
2023/03/14 09:47:25;;;;;;;1.17;0.90;;;13.40;99.90;;;;;;4987213;28;20202;-72
2023/03/14 09:49:53;;;;;;;1.60;0.90;;;13.40;99.90;;;;;;4990540;28;20989;-72
2023/03/14 09:52:25;;;;;;;1.10;0.70;;;13.40;99.90;;;;;;4996415;28;20224;-72
2023/03/14 09:54:55;;;;;;;1.20;0.83;;;13.30;99.90;;;;;;5010372;28;20283;-72
2023/03/14 09:57:25;;;;;;;1.93;1.07;;;13.30;99.90;;;;;;5010694;28;20217;-72
2023/03/14 09:59:55;;;;;;;2.33;1.03;;;13.30;99.90;;;;;;5010178;28;20241;-72
2023/03/14 10:02:24;;;;;;;2.03;0.73;;;13.30;99.90;;;;;;5010392;28;20263;-72
2023/03/14 10:04:53;;;;;;;1.27;0.90;;;13.30;99.90;;;;;;5009568;28;21094;-72
2023/03/14 10:07:28;;;;;;;6.23;2.83;;;13.30;99.90;;;;;;5009753;28;20221;-72
2023/03/14 10:09:55;;;;;;;2.77;2.57;;;13.30;99.90;;;;;;5009567;28;20985;-72
2023/03/14 10:12:32;;;;;;;5.60;1.20;;;13.30;99.90;;;;;;4996201;28;20210;-72
2023/03/14 10:15:03;;;;;;;2.70;1.10;;;13.30;99.90;;;;;;4996645;28;20227;-71
2023/03/14 10:17:33;;;;;;;1.20;1.00;;;13.30;99.90;;;;;;5009748;28;20747;-71
2023/03/14 10:20:01;;;;;;;2.90;1.30;;;13.30;99.90;;;;;;5010346;28;20563;-71
2023/03/14 10:22:31;;;;;;;2.13;1.10;;;13.20;99.90;;;;;;5009611;28;20205;-71
2023/03/14 10:25:02;;;;;;;1.60;1.00;;;13.20;99.90;;;;;;5009490;28;20771;-71
2023/03/14 10:27:31;;;;;;;2.57;1.20;;;13.20;99.90;;;;;;5009329;28;20240;-71
2023/03/14 10:30:00;;;;;;;3.03;1.60;;;13.20;99.90;;;;;;5009250;28;20265;-71
2023/03/14 10:32:34;;;;;;;2.50;1.87;;;13.10;99.90;;;;;;5008973;28;20648;-71
2023/03/14 10:35:19;;;;;;;0.80;0.50;;;13.10;99.90;;;;;;5009394;28;20316;-71
2023/03/14 10:37:54;;;;;;;1.47;0.70;;;13.10;99.90;;;;;;5008570;28;20624;-71
2023/03/14 10:40:28;;;;;;;2.30;1.10;;;13.10;99.90;;;;;;5009597;28;20209;-71
2023/03/14 10:42:55;;;;;;;3.77;1.20;;;13.10;99.90;;;;;;5009261;28;20297;-71
2023/03/14 10:45:34;;;;;;;2.30;0.87;;;13.10;99.90;;;;;;5009409;28;20328;-71
2023/03/14 10:48:18;;;;;;;0.83;0.80;;;13.10;99.90;;;;;;5008918;28;20312;-71
2023/03/14 10:50:49;;;;;;;2.13;0.93;;;13.10;99.90;;;;;;5008764;28;20736;-71
2023/03/14 10:53:18;;;;;;;1.43;0.90;;;13.10;99.90;;;;;;5008554;28;20289;-72
2023/03/14 10:55:46;;;;;;;1.53;0.70;;;13.10;99.90;;;;;;5008794;28;20240;-72
2023/03/14 10:58:24;;;;;;;1.43;0.90;;;13.10;99.90;;;;;;5008935;28;20644;-72
2023/03/14 11:01:01;;;;;;;3.10;0.97;;;13.10;99.90;;;;;;5009354;28;20288;-71
2023/03/14 11:03:31;;;;;;;1.93;0.63;;;13.10;99.90;;;;;;5008993;28;20296;-71
2023/03/14 11:06:00;;;;;;;1.97;0.53;;;13.10;99.90;;;;;;5009260;28;20308;-71
2023/03/14 11:08:37;;;;;;;0.50;0.50;;;13.10;99.90;;;;;;5008699;28;20256;-71
2023/03/14 11:11:13;;;;;;;2.73;0.80;;;13.10;99.90;;;;;;5009105;28;20241;-72
2023/03/14 11:13:46;;;;;;;5.17;0.93;;;13.10;99.90;;;;;;5008793;28;20233;-72
2023/03/14 11:16:23;;;;;;;4.80;0.97;;;13.10;99.90;;;;;;5009074;28;20233;-72
2023/03/14 11:19:12;;;;;;;2.53;0.87;;;13.10;99.90;;;;;;5008593;28;20792;-72
2023/03/14 11:21:47;;;;;;;1.43;0.73;;;13.10;99.90;;;;;;5008947;28;20225;-72
2023/03/14 11:24:40;;;;;;;3.23;0.60;;;13.10;99.90;;;;;;5008982;28;20239;-71
2023/03/14 11:27:16;;;;;;;1.60;0.73;;;13.10;99.90;;;;;;5009007;28;20277;-72
2023/03/14 11:29:52;;;;;;;1.50;0.97;;;13.10;99.90;;;;;;5008265;28;20310;-72
2023/03/14 11:32:27;;;;;;;1.10;0.70;;;13.10;99.90;;;;;;5008893;28;20669;-72
2023/03/14 11:34:55;;;;;;;0.67;0.67;;;13.10;99.90;;;;;;5008305;28;20638;-72
2023/03/14 11:37:27;;;;;;;1.27;0.77;;;13.10;99.90;;;;;;5008498;28;20308;-72
2023/03/14 11:40:01;;;;;;;1.17;0.60;;;13.10;99.90;;;;;;5008335;28;20260;-72
2023/03/14 11:42:28;;;;;;;1.27;0.70;;;13.10;99.90;;;;;;5008439;28;20255;-71
2023/03/14 11:44:58;;;;;;;0.97;0.63;;;13.10;99.90;;;;;;5007933;28;20293;-72
2023/03/14 11:47:30;;;;;;;1.53;0.50;;;13.10;99.90;;;;;;5008284;28;20210;-71
2023/03/14 11:50:02;;;;;;;2.40;0.80;;;13.10;99.90;;;;;;5007849;28;20648;-72
2023/03/14 11:52:33;;;;;;;1.17;0.50;;;13.10;99.90;;;;;;5008240;28;20624;-71
2023/03/14 11:55:06;;;;;;;1.70;0.57;;;13.10;99.90;;;;;;5007888;28;20355;-72
2023/03/14 11:57:33;;;;;;;1.30;0.67;;;13.10;99.90;;;;;;5007945;28;20217;-72
2023/03/14 12:00:09;;;;;;;2.50;0.57;;;13.10;99.90;;;;;;5007499;28;20217;-71
2023/03/14 12:02:46;;;;;;;0.97;0.80;;;13.20;99.90;;;;;;5007373;28;20694;-72
2023/03/14 12:05:38;;;;;;;1.03;0.60;;;13.20;99.90;;;;;;5008027;28;20205;-71
2023/03/14 12:08:27;;;;;;;1.57;0.70;;;13.30;99.90;;;;;;5007810;28;20316;-72
2023/03/14 12:10:59;;;;;;;0.93;0.37;;;13.30;99.90;;;;;;5009352;28;20284;-72
2023/03/14 12:13:30;;;;;;;0.30;0.30;;;13.30;99.90;;;;;;5007380;28;20284;-71
2023/03/14 12:15:59;;;;;;;0.40;0.40;;;13.30;99.90;;;;;;5007577;28;20226;-71
2023/03/14 12:18:29;;;;;;;1.00;0.47;;;13.30;99.90;;;;;;5007642;28;20213;-71
2023/03/14 12:20:58;;;;;;;1.90;0.60;;;13.30;99.90;;;;;;5007495;28;20631;-72
2023/03/14 12:23:27;;;;;;;2.30;0.63;;;13.40;99.90;;;;;;5007327;28;20288;-72
2023/03/14 12:26:18;;;;;;;0.67;0.47;;;13.50;99.90;;;;;;5007302;28;20297;-72
2023/03/14 12:28:51;;;;;;;1.17;0.63;;;13.50;99.90;;;;;;5002957;28;20684;-72
2023/03/14 12:31:42;;;;;;;2.27;0.50;;;13.50;99.90;;;;;;5007478;28;20204;-72
2023/03/14 12:34:28;;;;;;;0.63;0.60;;;13.50;99.90;;;;;;5003643;28;20292;-72
2023/03/14 12:37:05;;;;;;;1.50;0.90;;;13.40;99.90;;;;;;5006730;28;20272;-72
2023/03/14 12:39:43;;;;;;;0.60;0.40;;;13.30;99.90;;;;;;5007216;28;20288;-72
2023/03/14 12:42:14;;;;;;;0.33;0.33;;;13.30;99.90;;;;;;5007154;28;20201;-72
2023/03/14 12:44:43;;;;;;;1.90;0.57;;;13.30;99.90;;;;;;5007270;28;20202;-72
2023/03/14 12:47:58;;;;;;;0.43;0.30;;;13.30;99.90;;;;;;5007186;28;20220;-72
2023/03/14 12:50:34;;;;;;;1.03;0.40;;;13.30;99.90;;;;;;5007333;28;20997;-72
2023/03/14 12:53:41;;;;;;;0.47;0.43;;;13.30;99.90;;;;;;5007425;28;20197;-72
2023/03/14 12:56:24;;;;;;;3.03;0.50;;;13.40;99.90;;;;;;5007035;28;20814;-72
2023/03/14 12:59:10;;;;;;;0.50;0.50;;;13.50;99.90;;;;;;5007429;28;20213;-72